createdAt,value
2023-04-09T00:01:03.934Z,101195.91
2023-04-09T00:03:31.542Z,101195.91
2023-04-09T00:05:59.258Z,101193.28
2023-04-09T00:08:26.943Z,101189.75
2023-04-09T00:10:55.345Z,101201.13
2023-04-09T00:13:35.539Z,101195.81
2023-04-09T00:16:06.110Z,101199.38
2023-04-09T00:18:33.935Z,101202.91
2023-04-09T00:21:01.746Z,101202.88
2023-04-09T00:23:29.621Z,101202.00
2023-04-09T00:25:58.652Z,101203.75
2023-04-09T00:28:26.614Z,101199.38
2023-04-09T00:30:55.678Z,101194.13
2023-04-09T00:33:23.381Z,101194.09
2023-04-09T00:35:51.410Z,101198.53
2023-04-09T00:38:22.192Z,101197.63
2023-04-09T00:40:53.545Z,101195.03
2023-04-09T00:43:23.201Z,101193.25
2023-04-09T00:45:53.383Z,101201.16
2023-04-09T00:48:21.559Z,101187.91
2023-04-09T00:50:50.204Z,101181.56
2023-04-09T00:53:18.274Z,101170.25
2023-04-09T00:55:46.693Z,101174.66
2023-04-09T00:58:15.097Z,101173.81
2023-04-09T01:00:44.665Z,101174.72
2023-04-09T01:03:13.442Z,101180.00
2023-04-09T01:05:50.560Z,101186.22
2023-04-09T01:08:25.221Z,101192.31
2023-04-09T01:11:03.692Z,101195.69
2023-04-09T01:13:41.454Z,101198.38
2023-04-09T01:16:11.310Z,101207.19
2023-04-09T01:18:44.694Z,101203.66
2023-04-09T01:21:14.254Z,101200.19
2023-04-09T01:23:58.235Z,101209.84
2023-04-09T01:26:35.167Z,101212.34
2023-04-09T01:29:03.366Z,101216.78
2023-04-09T01:31:40.941Z,101212.38
2023-04-09T01:34:09.418Z,101221.22
2023-04-09T01:36:39.046Z,101224.66
2023-04-09T01:39:07.332Z,101219.41
2023-04-09T01:41:39.911Z,101215.00
2023-04-09T01:44:08.115Z,101217.59
2023-04-09T01:46:37.521Z,101221.16
2023-04-09T01:49:05.558Z,101225.50
2023-04-09T01:51:33.662Z,101221.09
2023-04-09T01:54:01.361Z,101228.09
2023-04-09T01:56:28.930Z,101228.13
2023-04-09T01:58:56.529Z,101221.13
2023-04-09T02:01:35.718Z,101227.28
2023-04-09T02:04:05.576Z,101236.91
2023-04-09T02:06:35.955Z,101227.34
2023-04-09T02:09:06.462Z,101232.38
2023-04-09T02:11:34.523Z,101229.75
2023-04-09T02:14:04.350Z,101231.66
2023-04-09T02:16:32.353Z,101227.28
2023-04-09T02:19:02.496Z,101235.19
2023-04-09T02:21:31.875Z,101229.13
2023-04-09T02:23:59.489Z,101221.22
2023-04-09T02:26:27.211Z,101230.88
2023-04-09T02:28:55.745Z,101232.63
2023-04-09T02:31:26.657Z,101232.66
2023-04-09T02:33:54.898Z,101230.03
2023-04-09T02:36:22.640Z,101225.63
2023-04-09T02:38:51.534Z,101222.13
2023-04-09T02:41:22.628Z,101223.88
2023-04-09T02:43:50.502Z,101225.66
2023-04-09T02:46:18.867Z,101220.41
2023-04-09T02:48:47.483Z,101224.81
2023-04-09T02:51:15.670Z,101222.16
2023-04-09T02:53:43.617Z,101218.56
2023-04-09T02:56:12.410Z,101214.22
2023-04-09T02:58:42.706Z,101220.34
2023-04-09T03:01:10.391Z,101223.78
2023-04-09T03:03:42.238Z,101221.91
2023-04-09T03:06:10.186Z,101227.13
2023-04-09T03:08:41.962Z,101221.13
2023-04-09T03:11:10.264Z,101220.25
2023-04-09T03:13:38.676Z,101222.97
2023-04-09T03:16:06.658Z,101227.38
2023-04-09T03:18:34.418Z,101226.50
2023-04-09T03:21:06.478Z,101229.16
2023-04-09T03:23:35.786Z,101233.59
2023-04-09T03:26:06.572Z,101237.13
2023-04-09T03:28:50.833Z,101225.72
2023-04-09T03:31:19.038Z,101230.97
2023-04-09T03:33:50.610Z,101226.59
2023-04-09T03:36:19.632Z,101238.88
2023-04-09T03:39:00.592Z,101233.63
2023-04-09T03:41:32.467Z,101237.97
2023-04-09T03:44:04.115Z,101237.09
2023-04-09T03:46:38.782Z,101231.81
2023-04-09T03:49:09.446Z,101228.34
2023-04-09T03:51:41.796Z,101224.81
2023-04-09T03:54:09.730Z,101222.16
2023-04-09T03:56:37.622Z,101226.53
2023-04-09T03:59:08.962Z,101230.97
2023-04-09T04:01:40.706Z,101224.81
2023-04-09T04:04:09.129Z,101232.69
2023-04-09T04:06:44.245Z,101234.38
2023-04-09T04:09:34.245Z,101228.94
2023-04-09T04:12:09.508Z,101220.88
2023-04-09T04:15:00.978Z,101227.13
2023-04-09T04:17:57.897Z,101235.06
2023-04-09T04:20:37.610Z,101239.41
2023-04-09T04:23:10.001Z,101237.66
2023-04-09T04:25:46.091Z,101240.34
2023-04-09T04:28:18.054Z,101242.09
2023-04-09T04:30:45.734Z,101243.00
2023-04-09T04:33:14.296Z,101240.41
2023-04-09T04:35:48.480Z,101247.31
2023-04-09T04:38:32.505Z,101255.00
2023-04-09T04:41:03.637Z,101250.78
2023-04-09T04:43:33.738Z,101258.81
2023-04-09T04:46:01.865Z,101254.44
2023-04-09T04:48:33.434Z,101251.75
2023-04-09T04:51:01.596Z,101257.88
2023-04-09T04:53:38.780Z,101254.31
2023-04-09T04:56:15.089Z,101255.25
2023-04-09T04:58:55.302Z,101257.03
2023-04-09T05:01:23.139Z,101265.66
2023-04-09T05:03:51.418Z,101261.25
2023-04-09T05:06:32.465Z,101248.97
2023-04-09T05:09:05.092Z,101261.41
2023-04-09T05:11:40.845Z,101267.50
2023-04-09T05:14:15.104Z,101263.16
2023-04-09T05:16:43.030Z,101269.31
2023-04-09T05:19:12.336Z,101275.28
2023-04-09T05:21:39.886Z,101273.63
2023-04-09T05:24:07.892Z,101285.06
2023-04-09T05:26:35.668Z,101284.75
2023-04-09T05:29:03.703Z,101281.41
2023-04-09T05:31:34.300Z,101284.97
2023-04-09T05:34:09.901Z,101291.94
2023-04-09T05:36:47.840Z,101283.25
2023-04-09T05:39:15.981Z,101279.78
2023-04-09T05:41:45.316Z,101291.09
2023-04-09T05:44:27.097Z,101288.56
2023-04-09T05:47:01.616Z,101293.78
2023-04-09T05:49:35.259Z,101296.38
2023-04-09T05:52:09.064Z,101298.09
2023-04-09T05:54:37.460Z,101294.88
2023-04-09T05:57:07.183Z,101293.03
2023-04-09T05:59:38.451Z,101295.59
2023-04-09T06:02:06.759Z,101301.75
2023-04-09T06:04:34.342Z,101307.19
2023-04-09T06:07:01.984Z,101299.22
2023-04-09T06:09:29.629Z,101302.84
2023-04-09T06:11:58.058Z,101303.66
2023-04-09T06:14:25.700Z,101309.06
2023-04-09T06:16:54.702Z,101312.66
2023-04-09T06:19:22.535Z,101316.03
2023-04-09T06:21:50.400Z,101310.75
2023-04-09T06:24:18.476Z,101314.31
2023-04-09T06:26:46.326Z,101316.19
2023-04-09T06:29:13.984Z,101319.72
2023-04-09T06:31:43.766Z,101325.84
2023-04-09T06:34:11.636Z,101324.94
2023-04-09T06:36:40.571Z,101331.88
2023-04-09T06:39:08.054Z,101330.09
2023-04-09T06:41:35.491Z,101339.91
2023-04-09T06:44:10.945Z,101333.72
2023-04-09T06:46:38.364Z,101335.47
2023-04-09T06:49:06.094Z,101328.50
2023-04-09T06:51:33.431Z,101337.28
2023-04-09T06:54:00.809Z,101340.78
2023-04-09T06:56:28.128Z,101348.63
2023-04-09T06:58:55.402Z,101343.91
2023-04-09T07:01:22.765Z,101348.13
2023-04-09T07:03:50.205Z,101348.34
2023-04-09T07:06:17.816Z,101356.91
2023-04-09T07:08:46.658Z,101353.94
2023-04-09T07:11:17.448Z,101353.97
2023-04-09T07:13:45.367Z,101356.50
2023-04-09T07:16:15.545Z,101349.47
2023-04-09T07:18:43.426Z,101354.59
2023-04-09T07:21:12.575Z,101361.41
2023-04-09T07:23:40.924Z,101372.78
2023-04-09T07:26:08.573Z,101356.38
2023-04-09T07:28:38.695Z,101368.00
2023-04-09T07:31:12.706Z,101362.66
2023-04-09T07:33:43.507Z,101369.56
2023-04-09T07:36:13.134Z,101364.53
2023-04-09T07:38:42.485Z,101373.28
2023-04-09T07:41:18.234Z,101368.47
2023-04-09T07:43:54.454Z,101376.94
2023-04-09T07:46:28.847Z,101383.88
2023-04-09T07:52:02.108Z,101386.69
2023-04-09T07:54:35.070Z,101387.19
2023-04-09T07:57:03.320Z,101391.97
2023-04-09T07:59:31.693Z,101390.72
2023-04-09T08:01:59.522Z,101392.06
2023-04-09T08:04:27.429Z,101396.06
2023-04-09T08:06:55.334Z,101391.50
2023-04-09T08:09:23.108Z,101398.13
2023-04-09T08:11:50.649Z,101390.34
2023-04-09T08:14:23.247Z,101392.31
2023-04-09T08:16:51.264Z,101399.09
2023-04-09T08:19:20.178Z,101406.97
2023-04-09T08:21:58.651Z,101402.97
2023-04-09T08:24:26.515Z,101404.91
2023-04-09T08:26:54.630Z,101408.91
2023-04-09T08:29:22.071Z,101416.78
2023-04-09T08:31:51.541Z,101411.13
2023-04-09T08:34:25.769Z,101410.16
2023-04-09T08:36:53.300Z,101414.22
2023-04-09T08:39:21.185Z,101412.41
2023-04-09T08:46:25.427Z,101425.84
2023-04-09T08:49:47.126Z,101422.47
2023-04-09T08:52:26.651Z,101433.06
2023-04-09T08:54:57.013Z,101426.44
2023-04-09T08:57:28.202Z,101415.66
2023-04-09T08:59:56.115Z,101416.25
2023-04-09T09:02:24.466Z,101420.72
2023-04-09T09:04:55.105Z,101411.84
2023-04-09T09:07:25.432Z,101414.09
2023-04-09T09:10:01.255Z,101419.25
2023-04-09T09:12:39.334Z,101412.53
2023-04-09T09:15:31.905Z,101407.91
2023-04-09T09:18:01.915Z,101417.75
2023-04-09T09:20:30.074Z,101411.75
2023-04-09T09:25:41.928Z,101412.31
2023-04-09T09:28:12.384Z,101405.97
2023-04-09T09:30:41.015Z,101412.81
2023-04-09T09:33:11.718Z,101410.41
2023-04-09T09:35:49.272Z,101409.66
2023-04-09T09:38:17.258Z,101412.91
2023-04-09T09:40:45.038Z,101406.91
2023-04-09T09:43:14.527Z,101408.41
2023-04-09T09:45:44.477Z,101411.44
2023-04-09T09:48:12.931Z,101419.00
2023-04-09T09:50:43.429Z,101413.56
2023-04-09T09:53:11.900Z,101406.03
2023-04-09T09:55:43.547Z,101414.31
2023-04-09T09:58:16.705Z,101405.97
2023-04-09T10:00:46.674Z,101403.00
2023-04-09T10:03:14.141Z,101402.06
2023-04-09T10:05:42.256Z,101402.31
2023-04-09T10:08:09.787Z,101404.66
2023-04-09T10:10:39.117Z,101404.44
2023-04-09T10:13:07.254Z,101407.59
2023-04-09T10:15:34.854Z,101401.34
2023-04-09T10:18:02.364Z,101390.56
2023-04-09T10:20:35.997Z,101401.63
2023-04-09T10:23:09.809Z,101395.25
2023-04-09T10:25:41.765Z,101393.84
2023-04-09T10:28:46.026Z,101392.47
2023-04-09T10:36:43.961Z,101392.84
2023-04-09T10:39:20.216Z,101387.88
2023-04-09T10:41:50.540Z,101386.00
2023-04-09T10:44:21.852Z,101389.31
2023-04-09T10:46:50.079Z,101384.38
2023-04-09T10:49:22.337Z,101379.38
2023-04-09T10:51:55.396Z,101377.88
2023-04-09T10:54:34.665Z,101378.19
2023-04-09T10:57:07.964Z,101375.13
2023-04-09T10:59:36.340Z,101381.69
2023-04-09T11:02:07.589Z,101379.88
2023-04-09T11:04:53.510Z,101382.50
2023-04-09T11:07:22.425Z,101379.50
2023-04-09T11:09:49.765Z,101374.56
2023-04-09T11:12:17.079Z,101367.06
2023-04-09T11:14:45.365Z,101362.25
2023-04-09T11:17:13.191Z,101361.91
2023-04-09T11:19:42.717Z,101362.44
2023-04-09T11:22:10.450Z,101363.19
2023-04-09T11:24:44.122Z,101357.69
2023-04-09T11:27:11.427Z,101358.03
2023-04-09T11:29:39.192Z,101359.03
2023-04-09T11:32:06.666Z,101359.84
2023-04-09T11:34:34.214Z,101357.69
2023-04-09T11:37:07.090Z,101360.34
2023-04-09T11:39:37.269Z,101352.38
2023-04-09T11:42:04.685Z,101354.13
2023-04-09T11:44:32.022Z,101351.66
2023-04-09T11:47:02.573Z,101362.50
2023-04-09T11:49:33.150Z,101357.84
2023-04-09T11:52:02.084Z,101359.56
2023-04-09T11:54:35.419Z,101361.56
2023-04-09T11:57:05.645Z,101352.09
2023-04-09T11:59:33.042Z,101347.84
2023-04-09T12:02:00.833Z,101351.00
2023-04-09T12:04:28.302Z,101352.22
2023-04-09T12:07:01.745Z,101342.06
2023-04-09T12:09:29.069Z,101342.22
2023-04-09T12:11:57.705Z,101342.13
2023-04-09T12:14:25.041Z,101341.00
2023-04-09T12:16:52.758Z,101343.19
2023-04-09T12:19:23.594Z,101337.22
2023-04-09T12:21:51.027Z,101332.81
2023-04-09T12:24:18.934Z,101326.00
2023-04-09T12:26:46.817Z,101317.97
2023-04-09T12:29:19.166Z,101314.94
2023-04-09T12:31:46.615Z,101308.94
2023-04-09T12:34:14.137Z,101316.75
2023-04-09T12:36:44.266Z,101323.78
2023-04-09T12:39:11.581Z,101307.00
2023-04-09T12:41:38.850Z,101324.34
2023-04-09T12:44:07.423Z,101318.75
2023-04-09T12:46:34.830Z,101311.63
2023-04-09T12:49:02.179Z,101313.97
2023-04-09T12:51:29.642Z,101306.97
2023-04-09T12:53:57.087Z,101306.53
2023-04-09T12:56:24.941Z,101305.97
2023-04-09T12:58:52.687Z,101307.72
2023-04-09T13:01:20.200Z,101307.84
2023-04-09T13:03:47.744Z,101310.97
2023-04-09T13:06:15.956Z,101307.66
2023-04-09T13:08:43.352Z,101302.09
2023-04-09T13:11:10.674Z,101305.84
2023-04-09T13:13:37.974Z,101302.81
2023-04-09T13:16:05.486Z,101299.38
2023-04-09T13:18:32.760Z,101295.03
2023-04-09T13:21:00.026Z,101299.09
2023-04-09T13:23:27.333Z,101291.19
2023-04-09T13:25:54.883Z,101283.69
2023-04-09T13:28:22.631Z,101280.16
2023-04-09T13:30:50.011Z,101282.91
2023-04-09T13:33:17.371Z,101270.69
2023-04-09T16:30:37.767Z,101271.38
2023-04-09T16:37:51.787Z,101278.72
2023-04-09T16:52:43.533Z,101276.00
2023-04-09T17:08:36.859Z,101290.56
2023-04-09T19:42:17.940Z,101481.44
2023-04-09T19:44:52.339Z,101477.03
2023-04-09T19:50:57.246Z,101485.81
2023-04-09T19:54:22.809Z,101482.31
2023-04-09T19:56:53.185Z,101476.16
2023-04-09T19:59:25.334Z,101480.53
2023-04-09T21:00:40.996Z,101506.03
2023-04-09T22:33:40.346Z,101555.00
2023-04-09T22:36:16.695Z,101552.22
2023-04-09T22:43:01.321Z,101555.66
2023-04-09T22:45:32.630Z,101561.00
2023-04-09T22:48:00.377Z,101561.09
2023-04-09T23:27:24.099Z,101576.59
2023-04-09T23:29:51.662Z,101566.94
2023-04-09T23:32:21.492Z,101568.69
2023-04-09T23:34:49.068Z,101570.38
2023-04-09T23:37:19.153Z,101567.72
